• Join FlightAware (Why Join?)
  • Login
  • US Flag 
02:58AM EDT


 

Airport Tracker/Info


-or-


 

Live Flight TrackerFlight Track Log ✈ SSX938 ✈ 27-Feb-2011 ✈ KABQ - KDEN

Flight Track Log - Related Links

Times and Time Zones

All times are in EST time to prevent confusion due to time zone crossing. See the SSX938 flight status page for this flight to view local times or setup timezone preferences in your user account.

Time Position Orientation Groundspeed Altitude Reporting Facility
EST Latitude Longitude Course Direction KTS MPH feet Rate Location/Type
07:30PM 35.0147 -106.6380 270° West 180 207 6,200  Level Albuquerque Center
07:31PM 35.0150 -106.6890 257° West 190 219 7,800 2,040 Climbing Albuquerque Center
07:31PM 35.0050 -106.7400 293° West 188 216 9,700 2,040 Climbing Albuquerque Center
07:32PM 35.0219 -106.7880 36° Northeast 188 216 11,500 1,800 Climbing Albuquerque Center
07:33PM 35.0717 -106.7440 38° Northeast 116 133 13,300 1,800 Climbing Albuquerque Center
07:34PM 35.1214 -106.6960 34° Northeast 172 198 15,100 1,800 Climbing Albuquerque Center
07:35PM 35.1775 -106.6500 17° North 215 247 16,900 1,800 Climbing Albuquerque Center
07:36PM 35.2422 -106.6260 15° North 228 262 18,800 1,800 Climbing Albuquerque Center
07:37PM 35.3067 -106.6050 16° North 222 255 20,600 1,560 Climbing Albuquerque Center
07:38PM 35.3650 -106.5840 North 222 255 22,000 1,320 Climbing Albuquerque Center
07:39PM 35.4192 -106.5740 North 222 255 23,300 1,020 Climbing Albuquerque Center
07:40PM 35.4839 -106.5730 North 222 255 24,100 840 Climbing Albuquerque Center
07:41PM 35.5589 -106.5620 North 229 264 25,000 420 Climbing Albuquerque Center
07:42PM 35.6256 -106.5540 North 240 276 25,000  Level Albuquerque Center
07:43PM 35.6986 -106.5450 North 275 316 25,000  Level Albuquerque Center
07:44PM 35.7925 -106.5340 North 294 338 25,000  Level Albuquerque Center
07:45PM 35.8758 -106.5180 12° North 307 353 25,000  Level Albuquerque Center
07:46PM 35.9611 -106.4960 22° Northeast 320 368 25,000  Level Albuquerque Center
07:47PM 36.0464 -106.4540 23° Northeast 320 368 25,000  Level Albuquerque Center
07:48PM 36.1317 -106.4100 20° North 325 374 25,000  Level Albuquerque Center
07:49PM 36.2250 -106.3670 21° North 325 374 25,000  Level Albuquerque Center
07:50PM 36.3083 -106.3270 22° Northeast 325 374 25,000  Level Albuquerque Center
07:53PM 36.4856 -106.2380 21° North 334 384 25,000  Level Denver Center
07:54PM 36.5667 -106.1990 21° North 323 372 25,000  Level Denver Center
07:55PM 36.6500 -106.1600 21° North 317 365 25,000  Level Denver Center
07:56PM 36.7164 -106.1290 21° North 317 365 25,000  Level Denver Center
07:57PM 36.8164 -106.0820 23° Northeast 316 364 25,000  Level Denver Center
07:58PM 36.8953 -106.0400 22° Northeast 311 358 25,000  Level Denver Center
07:59PM 36.9681 -106.0030 15° North 311 358 25,000  Level Denver Center
08:00PM 37.0556 -105.9740 10° North 311 358 25,000  Level Denver Center
08:01PM 37.1450 -105.9550 10° North 302 348 25,000  Level Denver Center
08:02PM 37.2283 -105.9360 11° North 302 348 25,000  Level Denver Center
08:03PM 37.3033 -105.9170 North 296 341 25,000  Level Denver Center
08:04PM 37.3886 -105.9010 11° North 296 341 25,000  Level Denver Center
08:05PM 37.4781 -105.8790 North 296 341 25,000  Level Denver Center
08:06PM 37.5636 -105.8630 12° North 301 346 25,000  Level Denver Center
08:07PM 37.6344 -105.8440 10° North 301 346 25,000  Level Denver Center
08:08PM 37.7156 -105.8250 11° North 294 338 25,000  Level Denver Center
08:09PM 37.8072 -105.8030 North 299 344 25,000  Level Denver Center
08:10PM 37.8861 -105.7870 11° North 294 338 25,000  Level Denver Center
08:11PM 37.9633 -105.7680 North 299 344 25,100  Climbing Denver Center
08:12PM 38.0444 -105.7510 11° North 294 338 25,000 -60 Descending Denver Center
08:13PM 38.1361 -105.7290 North 294 338 25,000  Level Denver Center
08:14PM 38.2172 -105.7120 10° North 294 338 25,000  Level Denver Center
08:15PM 38.2983 -105.6930 12° North 294 338 25,000  Level Denver Center
08:16PM 38.3733 -105.6730 10° North 294 338 25,000  Level Denver Center
08:17PM 38.4608 -105.6540 10° North 294 338 25,000  Level Denver Center
08:18PM 38.5461 -105.6340 12° North 299 344 25,000  Level Denver Center
08:19PM 38.6272 -105.6120 10° North 299 344 25,000  Level Denver Center
08:20PM 38.7064 -105.5950 10° North 305 351 25,000  Level Denver Center
08:21PM 38.8042 -105.5730 10° North 323 372 25,000 -60 Level Denver Center
08:22PM 38.8917 -105.5530 12° North 317 365 24,900 -1,020 Descending Denver Center
08:23PM 38.9808 -105.5280 North 317 365 23,000 -1,920 Descending Denver Center
08:24PM 39.0622 -105.5110 20° North 323 372 21,100 -2,040 Descending Denver Center
08:25PM 39.1494 -105.4690 48° Northeast 323 372 19,000 -2,160 Descending Denver Center
08:26PM 39.2194 -105.3690 53° Northeast 329 379 16,800 -1,920 Descending Denver Center
08:27PM 39.2767 -105.2710 49° Northeast 341 392 15,200 -1,200 Descending Denver Center
08:28PM 39.3322 -105.1880 51° Northeast 319 367 14,400 -840 Descending Denver Center
08:29PM 39.3853 -105.1030 71° East 305 351 13,600 -720 Descending Denver Center
08:30PM 39.4114 -105.0030 83° East 300 345 13,000 -780 Descending Denver Center
08:31PM 39.4203 -104.9060 67° East 284 327 12,100 -720 Descending Denver Center
08:31PM 39.4333 -104.8670 57° Northeast 260 299 12,000 -360 Descending Denver TRACON
08:32PM 39.4667 -104.8000 21° North 252 290 11,600 -840 Descending Denver TRACON
08:33PM 39.5333 -104.7670 21° North 244 281 10,300 -960 Descending Denver TRACON
08:34PM 39.6000 -104.7330 14° North 227 261 9,700 -840 Descending Denver TRACON
08:35PM 39.6500 -104.7170 28° Northeast 207 238 8,700 -1,020 Descending Denver TRACON
08:36PM 39.7000 -104.6830 14° North 186 214 7,700 -840 Descending Denver TRACON
08:37PM 39.7500 -104.6670 360° North 180 207 7,000 -720 Descending Denver TRACON
08:38PM 39.7833 -104.6670 360° North 150 173 6,300 -960 Descending Denver TRACON
08:45PM 39.8500 -104.6670 360° North -1 -960 Descending FlightAware Approximate